CheckWX is a tool to help pilots better visualize weather data.  It is not intended as a substitute for an official pre-flight weather briefing.

06:45:12 UTC

CYQK METAR
Kenora Airport
Kenora, Canada
Current

45 mins ago

CYQK 210600Z 15004KT 20SM SKC 11/M03 A3014 RMK SLP214
Observed
May-21 @ 06:00 UTC
Wind
  • 150° at 4 KTS
Visibility
20 SM
Flight Rules
VFR
Cloud Levels
  • Clear skies
Temperature
11°C / 52°F
Dewpoint
-3°C / 27°F
Humidity
38%
Altimeter
30.14" Hg
Pressure
1020.62 hPa
Previous

2 hours ago

CYQK 210500Z 11004KT 20SM SKC 12/M03 A3014 RMK SLP215
Observed
May-21 @ 05:00 UTC
Wind
  • 110° at 4 KTS
Visibility
20 SM
Flight Rules
VFR
Cloud Levels
  • Clear skies
Temperature
12°C / 54°F
Dewpoint
-3°C / 27°F
Humidity
35%
Altimeter
30.14" Hg
Pressure
1020.62 hPa
Previous

3 hours ago

CYQK 210400Z 09004KT 20SM SKC 12/M03 A3013 RMK SLP212
Observed
May-21 @ 04:00 UTC
Wind
  • 090° at 4 KTS
Visibility
20 SM
Flight Rules
VFR
Cloud Levels
  • Clear skies
Temperature
12°C / 54°F
Dewpoint
-3°C / 27°F
Humidity
35%
Altimeter
30.13" Hg
Pressure
1020.32 hPa